• Join FlightAware (Why Join?)
  • Login
  • US Flag 
01:22AM EST


 

Airport Tracker/Info


-or-


 

Live Flight TrackerFlight Track Log ✈ N21315 ✈ 03-May-2013 ✈ KHAO - KPWK

Flight Track Log - Related Links

Times and Time Zones

All times are in EDT time to prevent confusion due to time zone crossing. See the N21315 flight status page for this flight to view local times or setup timezone preferences in your user account.

Time Position Orientation Groundspeed Altitude Reporting Facility
EDT Latitude Longitude Course Direction KTS MPH feet Rate Location/Type
03:13PM 39.3667 -84.5000 123° Southeast 98 113 1,300  Level Cincinnati TRACON
03:14PM 39.3500 -84.4667 123° Southeast 72 83 2,100 540 Climbing Cincinnati TRACON
03:15PM 39.3514 -84.4528 83° East 75 86 2,400 360 Climbing Indianapolis Center
03:16PM 39.3786 -84.4536 359° North 113 130 2,700 240 Climbing Indianapolis Center
03:17PM 39.3964 -84.4717 322° Northwest 117 135 2,900 300 Climbing Indianapolis Center
03:18PM 39.4197 -84.4956 322° Northwest 106 122 3,300 360 Climbing Indianapolis Center
03:19PM 39.4425 -84.5206 320° Northwest 107 123 3,700 420 Climbing Indianapolis Center
03:20PM 39.4661 -84.5464 320° Northwest 107 123 4,200 540 Climbing Indianapolis Center
03:21PM 39.4925 -84.5767 318° Northwest 108 124 4,900 540 Climbing Indianapolis Center
03:22PM 39.5136 -84.6003 319° Northwest 104 120 5,400 480 Climbing Indianapolis Center
03:23PM 39.5389 -84.6239 324° Northwest 107 123 5,900 360 Climbing Indianapolis Center
03:24PM 39.5653 -84.6475 325° Northwest 112 129 6,200 300 Climbing Indianapolis Center
03:25PM 39.5931 -84.6728 325° Northwest 117 135 6,600 300 Climbing Indianapolis Center
03:26PM 39.6194 -84.6972 324° Northwest 117 135 6,900 240 Climbing Indianapolis Center
03:27PM 39.6450 -84.7222 323° Northwest 115 132 7,100 300 Climbing Indianapolis Center
03:28PM 39.6767 -84.7547 322° Northwest 116 133 7,600 360 Climbing Indianapolis Center
03:29PM 39.6997 -84.7772 323° Northwest 114 131 7,900 360 Climbing Indianapolis Center
03:30PM 39.7250 -84.8050 320° Northwest 117 135 8,300 360 Climbing Indianapolis Center
03:31PM 39.7506 -84.8319 321° Northwest 117 135 8,700 240 Climbing Indianapolis Center
03:32PM 39.7789 -84.8492 335° Northwest 115 132 8,900 120 Climbing Indianapolis Center
03:33PM 39.8211 -84.8567 352° North 140 161 9,000  Climbing Indianapolis Center
03:34PM 39.8622 -84.8678 348° North 152 175 9,000  Level Indianapolis Center
03:35PM 39.9006 -84.8772 349° North 150 173 9,000  Level Indianapolis Center
03:36PM 39.9419 -84.8903 346° North 148 170 9,100 240 Climbing Indianapolis Center
03:38PM 39.9811 -84.9003 349° North 143 165 9,600 420 Climbing Indianapolis Center
03:39PM 40.0178 -84.9119 346° North 118 136 10,000 180 Climbing Indianapolis Center
03:40PM 40.0556 -84.9231 347° North 126 145 10,000  Level Indianapolis Center
03:40PM 40.0936 -84.9336 348° North 156 180 10,000  Level Indianapolis Center
03:42PM 40.1408 -84.9478 347° North 153 176 10,000  Level Indianapolis Center
03:43PM 40.1828 -84.9592 348° North 154 177 10,000  Level Indianapolis Center
03:45PM 40.2728 -84.9856 347° North 153 176 10,000  Level Chicago Center
03:46PM 40.3156 -84.9978 348° North 155 178 10,000  Level Indianapolis Center
03:47PM 40.3558 -85.0078 349° North 151 174 10,100  Climbing Indianapolis Center
03:48PM 40.3953 -85.0175 349° North 146 168 10,000 -60 Descending Indianapolis Center
03:49PM 40.4386 -85.0303 347° North 154 177 10,000  Level Indianapolis Center
03:50PM 40.4786 -85.0433 346° North 152 175 10,000  Level Indianapolis Center
03:51PM 40.5258 -85.0581 347° North 148 170 10,100  Climbing Indianapolis Center
03:52PM 40.5547 -85.0933 317° Northwest 146 168 10,100 -60 Level Indianapolis Center
03:53PM 40.5742 -85.1411 298° West 149 171 10,000 -60 Descending Indianapolis Center
03:54PM 40.5869 -85.1917 288° West 148 170 10,000 -120 Level Indianapolis Center
03:55PM 40.5981 -85.2242 294° West 147 169 9,900  Descending Chicago Center
03:55PM 40.6017 -85.2378 289° West 146 168 10,000  Climbing Chicago Center
03:55PM 40.6097 -85.2628 293° West 141 162 9,900 -120 Descending Chicago Center
03:56PM 40.6144 -85.2836 287° West 139 160 9,900  Level Chicago Center
03:56PM 40.6211 -85.3100 288° West 141 162 9,900 60 Level Chicago Center
03:57PM 40.6308 -85.3419 292° West 140 161 10,000  Climbing Chicago Center
03:57PM 40.6344 -85.3569 288° West 136 157 9,900  Descending Chicago Center
03:58PM 40.6422 -85.3881 288° West 137 158 10,000  Climbing Chicago Center
03:58PM 40.6458 -85.4039 287° West 136 157 9,900  Descending Chicago Center
03:59PM 40.6511 -85.4342 283° West 133 153 10,000  Climbing Chicago Center
04:00PM 40.6594 -85.4775 284° West 129 148 10,000  Level Chicago Center
04:01PM 40.6767 -85.5242 296° West 135 155 10,100  Climbing Chicago Center
04:02PM 40.6889 -85.5725 288° West 139 160 10,100 -120 Level Chicago Center
04:04PM 40.7064 -85.6342 291° West 134 154 9,900  Descending Chicago Center
04:04PM 40.7175 -85.6736 290° West 135 155 10,100  Climbing Chicago Center
04:06PM 40.7308 -85.7314 287° West 144 166 10,000 -60 Descending Chicago Center
04:06PM 40.7425 -85.7756 289° West 145 167 10,000  Level Chicago Center
04:08PM 40.7581 -85.8236 293° West 145 167 10,000 -60 Level Chicago Center
04:09PM 40.7725 -85.8817 288° West 142 163 9,900  Descending Chicago Center
04:10PM 40.7811 -85.9208 286° West 138 159 10,100 60 Climbing Chicago Center
04:11PM 40.7947 -85.9761 288° West 134 154 10,100  Level Chicago Center
04:12PM 40.8089 -86.0256 291° West 141 162 10,200  Climbing Chicago Center
04:13PM 40.8233 -86.0747 291° West 143 165 10,100 -120 Descending Chicago Center
04:14PM 40.8381 -86.1239 292° West 143 165 10,000 -60 Descending Chicago Center
04:15PM 40.8514 -86.1708 291° West 140 161 10,000 -60 Level Chicago Center
04:16PM 40.8642 -86.2214 288° West 139 160 9,900  Descending Chicago Center
04:17PM 40.8800 -86.2769 291° West 137 158 10,000  Climbing Chicago Center
04:18PM 40.8903 -86.3164 289° West 138 159 9,900  Descending Chicago Center
04:19PM 40.9072 -86.3669 294° West 140 161 10,000  Climbing Chicago Center
04:20PM 40.9247 -86.4239 292° West 143 165 10,000  Level Chicago Center
04:21PM 40.9333 -86.4647 286° West 140 161 10,100 60 Climbing Chicago Center
04:21PM 40.9347 -86.4725 283° West 139 160 10,100 -120 Level Chicago Center
04:22PM 40.9344 -86.5236 270° West 140 161 10,000 -60 Descending Chicago Center
04:23PM 40.9381 -86.5764 275° West 144 166 10,000  Level Chicago Center
04:24PM 40.9439 -86.6389 277° West 144 166 10,000 -60 Level Chicago Center
04:25PM 40.9536 -86.6894 284° West 142 163 9,900 -120 Descending Chicago Center
04:26PM 40.9669 -86.7422 289° West 150 173 9,800  Descending Chicago Center
04:27PM 40.9858 -86.7864 300° West 140 161 10,000 60 Climbing Chicago Center
04:28PM 41.0056 -86.8314 300° West 139 160 10,000  Level Chicago Center
04:29PM 41.0269 -86.8867 297° West 140 161 10,100  Climbing Chicago Center
04:30PM 41.0433 -86.9353 294° West 145 167 10,000 -60 Descending Chicago Center
04:31PM 41.0625 -86.9850 297° West 150 173 10,000  Level Chicago Center
04:32PM 41.0794 -87.0342 295° West 148 170 10,000  Level Chicago Center
04:33PM 41.0950 -87.0822 293° West 144 166 10,000  Level Chicago Center
04:34PM 41.1156 -87.1425 294° West 148 170 10,000  Level Chicago Center
04:35PM 41.1297 -87.1967 289° West 154 177 10,000  Level Chicago Center
04:36PM 41.1419 -87.2450 289° West 143 165 10,000  Level Chicago Center
04:38PM 41.1514 -87.2931 285° West 137 158 10,100  Climbing Chicago Center
04:39PM 41.1603 -87.3431 283° West 138 159 10,000  Descending Chicago Center
04:40PM 41.1739 -87.3964 289° West 148 170 10,100 -120 Climbing Chicago Center
04:41PM 41.1897 -87.4600 288° West 152 175 9,800 -360 Descending Chicago Center
04:42PM 41.2039 -87.5125 290° West 151 174 9,400 -420 Descending Chicago Center
04:43PM 41.2156 -87.5636 287° West 148 170 9,000 -480 Descending Chicago Center
04:44PM 41.2275 -87.6147 287° West 145 167 8,500 -600 Descending Chicago Center
04:45PM 41.2394 -87.6667 287° West 146 168 7,800 -780 Descending Chicago Center
04:46PM 41.2558 -87.7319 288° West 153 176 6,900 -900 Descending Chicago Center
04:47PM 41.2703 -87.7856 290° West 154 177 6,000 -960 Descending Chicago Center
04:48PM 41.2914 -87.8364 299° West 158 182 4,900 -960 Descending Chicago Center
04:49PM 41.3144 -87.8839 303° West 157 181 4,100 -480 Descending Chicago Center
04:50PM 41.3356 -87.9297 302° West 152 175 4,000 -60 Descending Chicago Center
04:51PM 41.3647 -87.9803 308° West 147 169 4,000  Level Chicago Center
04:52PM 41.3881 -88.0219 307° West 144 166 4,100 60 Climbing Chicago Center
04:53PM 41.4128 -88.0650 307° West 142 163 4,200  Climbing Chicago Center
04:54PM 41.4386 -88.1086 308° West 143 165 4,100 -180 Descending Chicago Center
04:55PM 41.4644 -88.1528 308° West 146 168 3,900 -120 Descending Chicago Center
04:56PM 41.4883 -88.1969 306° West 148 170 3,900  Level Chicago Center
04:57PM 41.5119 -88.2392 307° West 146 168 4,000  Climbing Chicago Center
04:58PM 41.5308 -88.2842 299° West 142 163 4,000  Level Chicago Center
04:59PM 41.5589 -88.3342 307° West 142 163 4,000  Level Chicago Center
05:00PM 41.5922 -88.3633 327° Northwest 144 166 4,000  Level Chicago Center
05:01PM 41.6253 -88.3939 325° Northwest 144 166 4,000  Level Chicago Center
05:02PM 41.6578 -88.4231 326° Northwest 143 165 4,000 -60 Level Chicago Center
05:03PM 41.6911 -88.4525 327° Northwest 143 165 3,900 -180 Descending Chicago Center
05:04PM 41.7244 -88.4786 330° Northwest 142 163 3,700 -360 Descending Chicago Center
05:05PM 41.7725 -88.4786 360° North 144 166 3,200 -420 Descending Chicago Center
05:06PM 41.8103 -88.4806 358° North 140 161 2,900 -120 Descending Chicago Center
05:08PM 41.8444 -88.4847 355° North 133 153 3,000  Climbing Chicago Center
05:09PM 41.8764 -88.4881 356° North 124 143 3,000  Level Chicago Center
05:10PM 41.9078 -88.4908 356° North 118 136 3,000  Level Chicago Center
05:11PM 41.9467 -88.4928 358° North 116 133 3,000  Level Chicago Center
05:12PM 41.9781 -88.4947 357° North 115 132 3,100  Climbing Chicago Center
05:13PM 42.0100 -88.5019 350° North 116 133 3,000 -60 Descending Chicago Center
05:14PM 42.0403 -88.5228 333° Northwest 120 138 3,000  Level Chicago Center
05:15PM 42.0714 -88.5281 353° North 116 133 3,000  Level Chicago Center
05:16PM 42.1072 -88.5256 North 110 127 3,000  Level Chicago Center
05:17PM 42.1383 -88.5142 15° North 111 128 3,000  Level Chicago Center
05:18PM 42.1686 -88.4897 31° Northeast 117 135 3,000 -60 Level Chicago Center
05:19PM 42.1900 -88.4589 47° Northeast 115 132 2,900  Descending Chicago Center
05:20PM 42.2114 -88.4278 47° Northeast 113 130 3,000  Climbing Chicago Center
05:21PM 42.2275 -88.3922 59° Northeast 119 137 3,000 -60 Level Chicago Center
05:22PM 42.2339 -88.3478 79° East 108 124 2,900 -60 Descending Chicago Center
05:23PM 42.2408 -88.3111 76° East 105 121 2,900  Level Chicago Center
05:24PM 42.2469 -88.2750 77° East 102 117 2,900  Level Chicago Center
05:25PM 42.2536 -88.2408 75° East 99 114 2,900  Level Chicago Center
05:26PM 42.2594 -88.2092 76° East 95 109 2,900 -240 Level Chicago Center
05:27PM 42.2650 -88.1750 78° East 93 107 2,500 -360 Descending Chicago Center
05:28PM 42.2697 -88.1278 82° East 98 113 2,200 -120 Descending Chicago Center
05:29PM 42.2750 -88.0931 78° East 99 114 2,300  Climbing Chicago Center
05:30PM 42.2792 -88.0544 82° East 99 114 2,300  Level Chicago Center
05:31PM 42.2781 -88.0250 93° East 91 105 2,400  Climbing Chicago Center
05:32PM 42.2678 -87.9964 116° Southeast 86 99 2,300 -60 Descending Chicago Center
05:33PM 42.2464 -87.9703 138° Southeast 87 100 2,300 -60 Level Chicago Center
05:34PM 42.2242 -87.9603 162° South 87 100 2,200 -120 Descending Chicago Center
05:35PM 42.2036 -87.9508 161° South 83 96 2,100 -120 Descending Chicago Center
05:36PM 42.1828 -87.9403 159° South 81 93 2,000 -180 Descending Chicago Center
05:38PM 42.1653 -87.9311 159° South 79 91 1,800 -240 Descending Chicago Center